createdAt,value
2018-09-08T00:02:12.472Z,68.08
2018-09-08T00:04:41.338Z,67.91
2018-09-08T00:07:27.919Z,67.23
2018-09-08T00:09:56.789Z,67.94
2018-09-08T00:12:25.632Z,68.33
2018-09-08T00:14:53.639Z,68.15
2018-09-08T00:17:40.020Z,68.02
2018-09-08T00:20:26.962Z,68.07
2018-09-08T00:23:13.617Z,68.24
2018-09-08T00:26:00.035Z,68.54
2018-09-08T00:28:46.449Z,68.17
2018-09-08T00:31:17.130Z,68.14
2018-09-08T00:33:46.318Z,68.24
2018-09-08T00:36:15.179Z,68.62
2018-09-08T00:38:44.033Z,68.73
2018-09-08T00:41:12.864Z,68.57
2018-09-08T00:43:41.753Z,69.00
2018-09-08T00:46:10.973Z,69.35
2018-09-08T00:48:39.838Z,69.24
2018-09-08T00:51:08.732Z,69.17
2018-09-08T00:53:37.573Z,69.24
2018-09-08T00:56:06.433Z,69.65
2018-09-08T00:58:35.314Z,69.66
2018-09-08T01:01:04.228Z,70.17
2018-09-08T01:03:33.093Z,70.17
2018-09-08T01:06:01.995Z,70.37
2018-09-08T01:08:30.854Z,70.29
2018-09-08T01:10:59.728Z,70.43
2018-09-08T01:13:28.540Z,70.37
2018-09-08T01:15:57.413Z,70.56
2018-09-08T01:18:26.241Z,70.84
2018-09-08T01:20:55.103Z,69.94
2018-09-08T01:23:23.937Z,70.69
2018-09-08T01:25:52.802Z,71.12
2018-09-08T01:28:21.697Z,71.12
2018-09-08T01:30:50.599Z,71.17
2018-09-08T01:33:19.472Z,71.16
2018-09-08T01:35:48.358Z,71.43
2018-09-08T01:38:17.232Z,71.73
2018-09-08T01:40:46.140Z,71.99
2018-09-08T01:43:15.000Z,71.95
2018-09-08T01:45:43.842Z,72.31
2018-09-08T01:48:12.695Z,72.25
2018-09-08T01:50:41.581Z,72.29
2018-09-08T01:53:10.449Z,72.50
2018-09-08T01:55:39.336Z,72.42
2018-09-08T01:58:08.190Z,72.80
2018-09-08T02:00:37.058Z,72.75
2018-09-08T02:03:06.155Z,72.69
2018-09-08T02:05:35.040Z,72.68
2018-09-08T02:08:03.923Z,72.59
2018-09-08T02:10:32.835Z,72.48
2018-09-08T02:13:01.693Z,71.37
2018-09-08T02:15:30.527Z,72.35
2018-09-08T02:17:59.409Z,72.78
2018-09-08T02:20:28.283Z,72.56
2018-09-08T02:22:57.135Z,72.98
2018-09-08T02:25:26.064Z,72.78
2018-09-08T02:27:54.873Z,73.46
2018-09-08T02:30:23.742Z,73.08
2018-09-08T02:32:52.590Z,72.88
2018-09-08T02:35:21.417Z,73.45
2018-09-08T02:37:50.271Z,73.10
2018-09-08T02:40:19.161Z,73.45
2018-09-08T02:42:48.010Z,73.80
2018-09-08T02:45:16.880Z,74.27
2018-09-08T02:47:45.795Z,73.74
2018-09-08T02:50:42.961Z,73.73
2018-09-08T02:53:14.336Z,73.52
2018-09-08T02:55:42.151Z,74.02
2018-09-08T02:58:09.967Z,73.82
2018-09-08T03:00:37.785Z,74.20
2018-09-08T03:03:05.598Z,74.28
2018-09-08T03:05:33.404Z,74.33
2018-09-08T03:08:01.256Z,74.04
2018-09-08T03:10:29.055Z,74.68
2018-09-08T03:12:56.874Z,74.71
2018-09-08T03:15:24.688Z,75.29
2018-09-08T03:17:52.471Z,75.16
2018-09-08T03:20:20.293Z,75.07
2018-09-08T03:22:48.105Z,75.30
2018-09-08T03:25:15.915Z,74.58
2018-09-08T03:27:43.705Z,75.47
2018-09-08T03:30:11.526Z,74.47
2018-09-08T03:32:39.325Z,73.99
2018-09-08T03:35:07.136Z,74.78
2018-09-08T03:37:34.956Z,73.58
2018-09-08T03:40:02.767Z,74.79
2018-09-08T03:42:30.594Z,73.56
2018-09-08T03:44:58.443Z,74.49
2018-09-08T03:47:26.264Z,74.68
2018-09-08T03:49:54.074Z,75.23
2018-09-08T03:52:21.895Z,75.01
2018-09-08T03:54:49.687Z,75.35
2018-09-08T03:57:17.484Z,75.46
2018-09-08T03:59:45.271Z,75.82
2018-09-08T04:02:13.090Z,75.94
2018-09-08T04:04:42.013Z,76.19
2018-09-08T04:07:10.866Z,76.35
2018-09-08T04:09:39.738Z,76.32
2018-09-08T04:12:08.583Z,77.19
2018-09-08T04:14:37.436Z,77.28
2018-09-08T04:17:06.289Z,76.80
2018-09-08T04:19:35.169Z,77.16
2018-09-08T04:22:04.032Z,77.52
2018-09-08T04:24:32.891Z,77.25
2018-09-08T04:27:01.764Z,77.31
2018-09-08T04:29:30.633Z,77.63
2018-09-08T04:31:59.546Z,77.66
2018-09-08T04:34:28.422Z,77.60
2018-09-08T04:36:57.263Z,77.75
2018-09-08T04:39:26.129Z,77.59
2018-09-08T04:41:54.980Z,77.98
2018-09-08T04:44:23.862Z,78.00
2018-09-08T04:46:52.700Z,78.33
2018-09-08T04:49:21.632Z,78.24
2018-09-08T04:51:50.437Z,78.81
2018-09-08T04:54:19.272Z,78.78
2018-09-08T04:56:48.126Z,77.57
2018-09-08T04:59:16.988Z,78.79
2018-09-08T05:01:45.843Z,78.67
2018-09-08T05:04:14.722Z,78.15
2018-09-08T05:06:43.624Z,78.37
2018-09-08T05:09:12.933Z,79.00
2018-09-08T05:11:41.703Z,78.81
2018-09-08T05:14:10.587Z,79.10
2018-09-08T05:16:39.437Z,79.17
2018-09-08T05:19:08.292Z,78.82
2018-09-08T05:21:37.161Z,78.92
2018-09-08T05:24:06.059Z,78.85
2018-09-08T05:26:34.946Z,78.48
2018-09-08T05:29:03.844Z,78.60
2018-09-08T05:31:32.705Z,78.02
2018-09-08T05:34:01.579Z,76.54
2018-09-08T05:36:30.463Z,77.21
2018-09-08T05:38:59.345Z,76.69
2018-09-08T05:41:28.184Z,76.86
2018-09-08T05:43:57.069Z,76.85
2018-09-08T05:46:25.939Z,76.64
2018-09-08T05:48:54.870Z,76.45
2018-09-08T05:51:23.702Z,76.68
2018-09-08T05:53:52.564Z,76.07
2018-09-08T05:56:21.474Z,75.84
2018-09-08T05:58:50.505Z,76.24
2018-09-08T06:01:19.368Z,76.11
2018-09-08T06:03:48.276Z,76.12
2018-09-08T06:06:17.150Z,76.30
2018-09-08T06:08:45.995Z,75.68
2018-09-08T06:11:14.862Z,75.96
2018-09-08T06:13:43.720Z,75.84
2018-09-08T06:16:12.582Z,75.82
2018-09-08T06:18:41.412Z,75.77
2018-09-08T06:21:10.230Z,75.91
2018-09-08T06:23:39.113Z,76.12
2018-09-08T06:26:07.985Z,75.55
2018-09-08T06:28:37.043Z,75.78
2018-09-08T06:31:05.769Z,75.11
2018-09-08T06:33:34.891Z,75.09
2018-09-08T06:36:03.766Z,74.77
2018-09-08T06:38:32.606Z,74.82
2018-09-08T06:41:01.525Z,74.36
2018-09-08T06:43:30.358Z,73.96
2018-09-08T06:45:59.228Z,74.20
2018-09-08T06:48:28.083Z,74.20
2018-09-08T06:50:56.954Z,74.54
2018-09-08T06:53:25.772Z,73.31
2018-09-08T06:55:54.612Z,74.80
2018-09-08T06:58:23.452Z,74.36
2018-09-08T07:00:52.977Z,69.54
2018-09-08T07:03:21.881Z,66.85
2018-09-08T07:05:50.664Z,67.52
2018-09-08T07:08:19.524Z,69.28
2018-09-08T07:10:48.353Z,70.26
2018-09-08T07:13:17.218Z,71.12
2018-09-08T07:15:46.060Z,69.92
2018-09-08T07:18:14.914Z,66.95
2018-09-08T07:20:43.780Z,64.95
2018-09-08T07:23:12.627Z,65.11
2018-09-08T07:25:41.472Z,66.34
2018-09-08T07:28:10.353Z,67.46
2018-09-08T07:30:39.199Z,67.83
2018-09-08T07:33:08.060Z,68.33
2018-09-08T07:35:36.915Z,68.18
2018-09-08T07:38:06.141Z,68.46
2018-09-08T07:40:35.010Z,67.71
2018-09-08T07:43:03.934Z,67.57
2018-09-08T07:45:32.792Z,67.46
2018-09-08T07:48:01.686Z,67.62
2018-09-08T07:50:30.552Z,66.94
2018-09-08T07:52:59.387Z,66.89
2018-09-08T07:55:28.244Z,65.42
2018-09-08T07:57:57.051Z,65.20
2018-09-08T08:00:25.908Z,63.56
2018-09-08T08:02:54.759Z,58.25
2018-09-08T08:05:23.632Z,54.67
2018-09-08T08:07:52.479Z,56.28
2018-09-08T08:10:21.366Z,56.41
2018-09-08T08:12:50.216Z,56.71
2018-09-08T08:15:19.473Z,56.92
2018-09-08T08:17:48.325Z,57.28
2018-09-08T08:20:17.153Z,56.89
2018-09-08T08:22:45.992Z,56.87
2018-09-08T08:25:14.845Z,56.49
2018-09-08T08:27:43.669Z,56.39
2018-09-08T08:30:12.534Z,55.74
2018-09-08T08:32:41.322Z,56.20
2018-09-08T08:35:10.185Z,56.51
2018-09-08T08:37:39.025Z,56.71
2018-09-08T08:40:07.888Z,56.30
2018-09-08T08:42:36.760Z,54.96
2018-09-08T08:45:05.683Z,55.20
2018-09-08T08:47:34.530Z,55.71
2018-09-08T08:50:39.906Z,55.41
2018-09-08T08:54:04.516Z,55.10
2018-09-08T08:56:33.353Z,55.57
2018-09-08T08:59:02.268Z,53.44
2018-09-08T09:01:31.120Z,49.67
2018-09-08T09:03:59.957Z,48.17
2018-09-08T09:06:28.850Z,46.46
2018-09-08T09:08:57.704Z,45.63
2018-09-08T09:11:26.535Z,45.30
2018-09-08T09:13:55.380Z,46.57
2018-09-08T09:16:24.207Z,46.76
2018-09-08T09:19:34.606Z,47.68
2018-09-08T09:22:39.808Z,47.28
2018-09-08T09:25:11.594Z,47.10
2018-09-08T09:27:44.694Z,47.51
2018-09-08T09:30:14.227Z,47.85
2018-09-08T09:32:43.050Z,47.98
2018-09-08T09:35:13.661Z,48.82
2018-09-08T09:37:42.604Z,50.14
2018-09-08T09:40:12.307Z,49.15
2018-09-08T09:42:41.247Z,50.24
2018-09-08T09:45:10.628Z,50.41
2018-09-08T09:47:39.468Z,51.83
2018-09-08T09:50:09.549Z,51.84
2018-09-08T09:52:38.616Z,51.43
2018-09-08T09:55:07.476Z,49.10
2018-09-08T09:57:36.381Z,47.93
2018-09-08T10:00:06.433Z,45.39
2018-09-08T10:02:41.479Z,44.10
2018-09-08T10:05:15.061Z,41.53
2018-09-08T10:07:44.007Z,40.02
2018-09-08T10:10:14.169Z,40.02
2018-09-08T10:12:43.009Z,39.79
2018-09-08T10:15:11.957Z,38.35
2018-09-08T10:17:41.679Z,38.41
2018-09-08T10:20:12.576Z,37.38
2018-09-08T10:22:41.442Z,37.77
2018-09-08T10:25:12.582Z,36.46
2018-09-08T10:27:41.714Z,35.88
2018-09-08T10:30:10.954Z,36.30
2018-09-08T10:32:40.329Z,37.69
2018-09-08T10:35:09.291Z,37.45
2018-09-08T10:37:38.311Z,38.00
2018-09-08T10:40:08.325Z,36.36
2018-09-08T10:42:37.124Z,36.29
2018-09-08T10:45:06.115Z,39.29
2018-09-08T10:47:34.966Z,37.96
2018-09-08T10:50:03.836Z,39.59
2018-09-08T10:52:35.137Z,40.78
2018-09-08T10:55:04.029Z,42.07
2018-09-08T10:57:32.889Z,42.08
2018-09-08T11:00:02.654Z,41.37
2018-09-08T11:02:32.027Z,40.39
2018-09-08T11:05:01.372Z,40.71
2018-09-08T11:07:30.627Z,38.19
2018-09-08T11:09:59.592Z,38.15
2018-09-08T11:12:28.647Z,40.09
2018-09-08T11:14:57.487Z,38.27
2018-09-08T11:17:26.324Z,38.85
2018-09-08T11:19:55.185Z,39.78
2018-09-08T11:22:24.025Z,40.13
2018-09-08T11:24:52.865Z,39.30
2018-09-08T11:27:21.696Z,39.40
2018-09-08T11:29:50.551Z,39.67
2018-09-08T11:32:19.432Z,40.06
2018-09-08T11:34:48.268Z,40.05
2018-09-08T11:37:17.140Z,38.96
2018-09-08T11:39:46.003Z,39.50
2018-09-08T11:42:14.820Z,39.69
2018-09-08T11:44:43.677Z,40.16
2018-09-08T11:47:12.525Z,39.69
2018-09-08T11:49:41.478Z,39.96
2018-09-08T11:52:10.230Z,40.29
2018-09-08T11:54:39.060Z,41.46
2018-09-08T11:57:07.927Z,41.10
2018-09-08T11:59:36.841Z,42.48
2018-09-08T12:02:05.789Z,41.83
2018-09-08T12:04:34.561Z,41.99
2018-09-08T12:07:03.385Z,40.96
2018-09-08T12:09:32.315Z,41.27
2018-09-08T12:12:01.162Z,42.95
2018-09-08T12:14:29.988Z,41.25
2018-09-08T12:16:58.819Z,41.80
2018-09-08T12:19:27.627Z,41.04
2018-09-08T12:21:56.473Z,41.33
2018-09-08T12:24:25.319Z,42.35
2018-09-08T12:26:54.162Z,41.57
2018-09-08T12:29:22.998Z,41.25
2018-09-08T12:31:51.879Z,41.24
2018-09-08T12:34:20.706Z,40.48
2018-09-08T12:36:49.546Z,41.07
2018-09-08T12:39:18.437Z,40.05
2018-09-08T12:41:47.287Z,40.42
2018-09-08T12:44:16.151Z,40.10
2018-09-08T12:46:44.978Z,39.98
2018-09-08T12:49:13.823Z,40.22
2018-09-08T12:51:42.712Z,40.78
2018-09-08T12:54:11.574Z,39.52
2018-09-08T12:56:40.405Z,39.63
2018-09-08T12:59:09.270Z,39.37
2018-09-08T13:01:38.089Z,39.24
2018-09-08T13:04:07.385Z,38.37
2018-09-08T13:06:36.231Z,39.04
2018-09-08T13:09:06.300Z,38.88
2018-09-08T13:11:35.155Z,39.29
2018-09-08T13:14:04.028Z,39.93
2018-09-08T13:16:32.933Z,38.63
2018-09-08T13:19:01.791Z,40.01
2018-09-08T13:21:30.643Z,39.49
2018-09-08T13:23:59.535Z,38.00
2018-09-08T13:26:28.407Z,39.06
2018-09-08T13:28:57.293Z,38.86
2018-09-08T13:31:26.141Z,38.74
2018-09-08T13:33:54.997Z,40.05
2018-09-08T13:36:23.853Z,40.14
2018-09-08T13:38:52.723Z,40.43
2018-09-08T13:41:21.620Z,41.63
2018-09-08T13:43:50.567Z,40.45
2018-09-08T13:46:19.340Z,40.21
2018-09-08T13:48:48.203Z,39.96
2018-09-08T13:51:17.074Z,40.38
2018-09-08T13:53:45.897Z,40.66
2018-09-08T13:56:14.720Z,41.58
2018-09-08T13:58:43.562Z,43.24
2018-09-08T14:01:12.548Z,42.59
2018-09-08T14:03:41.423Z,42.40
2018-09-08T14:06:10.794Z,42.36
2018-09-08T14:08:39.689Z,42.71
2018-09-08T14:11:08.547Z,42.97
2018-09-08T14:13:37.389Z,43.50
2018-09-08T14:16:06.308Z,43.23
2018-09-08T14:18:35.189Z,43.91
2018-09-08T14:21:04.059Z,42.53
2018-09-08T14:23:32.925Z,43.29
2018-09-08T14:26:01.807Z,43.79
2018-09-08T14:28:30.641Z,42.87
2018-09-08T14:30:59.516Z,43.76
2018-09-08T14:33:28.384Z,43.00
2018-09-08T14:35:57.250Z,43.76
2018-09-08T14:38:26.292Z,42.18
2018-09-08T14:40:55.124Z,42.29
2018-09-08T14:43:23.993Z,42.62
2018-09-08T14:45:52.880Z,43.10
2018-09-08T14:48:21.694Z,42.67
2018-09-08T14:50:50.565Z,41.51
2018-09-08T14:53:19.449Z,42.45
2018-09-08T14:55:48.342Z,42.69
2018-09-08T14:58:17.231Z,42.16
2018-09-08T15:00:46.110Z,41.71
2018-09-08T15:03:14.989Z,41.99
2018-09-08T15:05:43.827Z,42.57
2018-09-08T15:08:12.708Z,43.29
2018-09-08T15:10:41.574Z,43.30
2018-09-08T15:13:10.452Z,42.94
2018-09-08T15:15:39.308Z,43.61
2018-09-08T15:18:08.142Z,43.99
2018-09-08T15:20:36.996Z,44.09
2018-09-08T15:23:05.925Z,44.69
2018-09-08T15:25:34.811Z,45.27
2018-09-08T15:28:03.759Z,45.04
2018-09-08T15:30:32.624Z,45.47
2018-09-08T15:33:01.465Z,46.67
2018-09-08T15:35:30.305Z,46.16
2018-09-08T15:37:59.165Z,45.83
2018-09-08T15:40:28.006Z,45.87
2018-09-08T15:42:56.909Z,45.13
2018-09-08T15:45:25.798Z,45.59
2018-09-08T15:47:54.618Z,45.75
2018-09-08T15:50:23.445Z,45.67
2018-09-08T15:52:52.299Z,45.89
2018-09-08T15:55:21.156Z,46.11
2018-09-08T15:57:50.017Z,47.02
2018-09-08T16:00:18.834Z,47.41
2018-09-08T16:02:47.691Z,47.47
2018-09-08T16:05:16.576Z,48.01
2018-09-08T16:07:45.445Z,47.36
2018-09-08T16:10:14.311Z,46.65
2018-09-08T16:12:43.129Z,48.17
2018-09-08T16:15:11.991Z,47.97
2018-09-08T16:17:40.845Z,48.11
2018-09-08T16:20:09.687Z,48.58
2018-09-08T16:22:38.591Z,49.25
2018-09-08T16:25:07.457Z,48.75
2018-09-08T16:27:36.322Z,49.42
2018-09-08T16:30:05.297Z,49.57
2018-09-08T16:32:34.162Z,49.50
2018-09-08T16:35:02.991Z,48.50
2018-09-08T16:37:31.836Z,49.89
2018-09-08T16:40:00.737Z,50.44
2018-09-08T16:42:29.598Z,50.14
2018-09-08T16:44:58.477Z,51.33
2018-09-08T16:47:27.338Z,51.25
2018-09-08T16:49:56.274Z,52.18
2018-09-08T16:52:25.162Z,52.56
2018-09-08T16:54:53.925Z,52.36
2018-09-08T16:57:22.770Z,52.54
2018-09-08T16:59:51.638Z,52.46
2018-09-08T17:02:20.510Z,52.69
2018-09-08T17:04:49.461Z,53.23
2018-09-08T17:07:18.238Z,52.73
2018-09-08T17:09:47.063Z,53.49
2018-09-08T17:12:15.879Z,54.07
2018-09-08T17:14:44.731Z,54.39
2018-09-08T17:17:13.604Z,54.29
2018-09-08T17:19:42.426Z,54.32
2018-09-08T17:22:11.271Z,54.98
2018-09-08T17:24:40.124Z,54.89
2018-09-08T17:27:08.928Z,55.04
2018-09-08T17:29:37.770Z,55.57
2018-09-08T17:32:06.643Z,55.95
2018-09-08T17:34:35.484Z,56.16
2018-09-08T17:37:04.377Z,55.52
2018-09-08T17:39:33.312Z,55.99
2018-09-08T17:42:02.107Z,56.96
2018-09-08T17:44:30.946Z,56.53
2018-09-08T17:46:59.794Z,56.46
2018-09-08T17:49:28.653Z,57.04
2018-09-08T17:51:57.553Z,57.20
2018-09-08T17:54:26.418Z,57.12
2018-09-08T17:56:55.243Z,57.33
2018-09-08T17:59:24.121Z,57.12
2018-09-08T18:01:53.008Z,56.51
2018-09-08T18:04:21.853Z,56.75
2018-09-08T18:06:50.734Z,55.97
2018-09-08T18:09:19.600Z,55.68
2018-09-08T18:11:48.524Z,55.99
2018-09-08T18:14:17.358Z,56.88
2018-09-08T18:16:46.193Z,56.88
2018-09-08T18:19:15.031Z,57.44
2018-09-08T18:21:43.902Z,57.41
2018-09-08T18:24:12.756Z,57.63
2018-09-08T18:26:41.613Z,57.90
2018-09-08T18:29:10.447Z,57.59
2018-09-08T18:31:39.305Z,57.15
2018-09-08T18:34:08.357Z,57.62
2018-09-08T18:36:37.206Z,57.93
2018-09-08T18:39:06.452Z,58.59
2018-09-08T18:41:35.500Z,58.82
2018-09-08T18:44:04.299Z,59.08
2018-09-08T18:46:33.180Z,59.67
2018-09-08T18:49:02.181Z,59.84
2018-09-08T18:51:31.060Z,59.29
2018-09-08T18:54:00.000Z,59.61
2018-09-08T18:56:28.772Z,59.61
2018-09-08T18:58:57.626Z,60.86
2018-09-08T19:01:26.517Z,61.16
2018-09-08T19:03:55.388Z,61.09
2018-09-08T19:06:24.251Z,60.68
2018-09-08T19:08:53.082Z,60.75
2018-09-08T19:11:21.975Z,60.99
2018-09-08T19:13:50.866Z,60.34
2018-09-08T19:16:19.722Z,58.99
2018-09-08T19:18:48.613Z,58.46
2018-09-08T19:21:17.515Z,59.55
2018-09-08T19:23:49.976Z,59.31
2018-09-08T19:26:18.810Z,59.49
2018-09-08T19:29:06.821Z,59.44
2018-09-08T19:31:35.695Z,59.31
2018-09-08T19:34:04.528Z,59.18
2018-09-08T19:36:33.368Z,58.99
2018-09-08T19:39:02.193Z,58.88
2018-09-08T19:41:31.067Z,59.21
2018-09-08T19:43:59.906Z,57.98
2018-09-08T19:46:46.457Z,58.30
2018-09-08T19:49:15.329Z,58.74
2018-09-08T19:51:44.167Z,58.89
2018-09-08T19:54:13.031Z,58.68
2018-09-08T19:56:59.481Z,58.86
2018-09-08T19:59:28.344Z,59.45
2018-09-08T20:01:57.215Z,60.22
2018-09-08T20:04:26.024Z,60.19
2018-09-08T20:06:54.901Z,60.40
2018-09-08T20:09:23.809Z,60.33
2018-09-08T20:11:52.650Z,60.56
2018-09-08T20:14:21.487Z,60.42
2018-09-08T20:16:50.460Z,60.55
2018-09-08T20:19:19.431Z,60.08
2018-09-08T20:21:48.251Z,60.59
2018-09-08T20:24:17.131Z,60.26
2018-09-08T20:26:46.176Z,60.74
2018-09-08T20:29:14.896Z,60.75
2018-09-08T20:31:43.734Z,60.60
2018-09-08T20:34:12.627Z,60.83
2018-09-08T20:36:41.495Z,60.47
2018-09-08T20:39:10.368Z,60.61
2018-09-08T20:41:39.230Z,61.44
2018-09-08T20:44:08.082Z,61.23
2018-09-08T20:46:36.936Z,60.96
2018-09-08T20:49:06.039Z,60.55
2018-09-08T20:51:34.877Z,60.99
2018-09-08T20:54:03.742Z,61.29
2018-09-08T20:56:32.676Z,61.25
2018-09-08T20:59:01.521Z,61.30
2018-09-08T21:01:30.509Z,61.50
2018-09-08T21:03:59.391Z,61.84
2018-09-08T21:06:28.264Z,61.77
2018-09-08T21:08:57.128Z,62.13
2018-09-08T21:11:26.676Z,62.21
2018-09-08T21:13:55.554Z,62.47
2018-09-08T21:16:24.395Z,61.75
2018-09-08T21:18:53.246Z,62.60
2018-09-08T21:21:22.085Z,62.56
2018-09-08T21:23:50.950Z,62.28
2018-09-08T21:26:19.806Z,62.61
2018-09-08T21:28:48.710Z,61.38
2018-09-08T21:31:17.582Z,62.37
2018-09-08T21:33:46.431Z,62.56
2018-09-08T21:36:15.310Z,62.27
2018-09-08T21:38:44.184Z,62.23
2018-09-08T21:41:13.240Z,62.73
2018-09-08T21:43:42.099Z,62.75
2018-09-08T21:46:10.951Z,62.91
2018-09-08T21:48:39.864Z,63.06
2018-09-08T21:51:08.721Z,63.56
2018-09-08T21:53:37.576Z,63.86
2018-09-08T21:56:06.431Z,63.66
2018-09-08T21:58:35.298Z,63.78
2018-09-08T22:01:21.880Z,64.24
2018-09-08T22:03:50.731Z,64.73
2018-09-08T22:06:19.675Z,65.08
2018-09-08T22:08:48.530Z,65.58
2018-09-08T22:11:17.390Z,65.93
2018-09-08T22:13:46.243Z,66.28
2018-09-08T22:16:15.137Z,66.77
2018-09-08T22:18:44.044Z,66.60
2018-09-08T22:21:12.946Z,66.17
2018-09-08T22:23:41.838Z,66.10
2018-09-08T22:26:10.711Z,66.16
2018-09-08T22:28:39.545Z,66.38
2018-09-08T22:31:08.417Z,65.70
2018-09-08T22:33:37.351Z,66.73
2018-09-08T22:36:06.174Z,66.67
2018-09-08T22:38:35.032Z,66.76
2018-09-08T22:41:03.929Z,66.77
2018-09-08T22:43:32.782Z,67.09
2018-09-08T22:46:01.678Z,67.50
2018-09-08T22:48:30.561Z,67.71
2018-09-08T22:50:59.405Z,67.47
2018-09-08T22:53:28.252Z,67.69
2018-09-08T22:55:57.132Z,67.28
2018-09-08T22:58:25.991Z,67.15
2018-09-08T23:00:54.858Z,66.95
2018-09-08T23:03:23.699Z,66.61
2018-09-08T23:05:52.621Z,66.53
2018-09-08T23:08:21.404Z,66.32
2018-09-08T23:10:50.267Z,65.89
2018-09-08T23:13:19.214Z,66.43
2018-09-08T23:15:48.050Z,66.26
2018-09-08T23:18:16.953Z,65.68
2018-09-08T23:20:45.818Z,65.79
2018-09-08T23:23:14.644Z,65.35
2018-09-08T23:25:43.513Z,65.49
2018-09-08T23:28:12.367Z,65.56
2018-09-08T23:30:41.201Z,65.18
2018-09-08T23:33:10.163Z,65.40
2018-09-08T23:35:39.055Z,65.49
2018-09-08T23:38:07.972Z,65.51
2018-09-08T23:40:36.860Z,65.17
2018-09-08T23:43:05.743Z,65.29
2018-09-08T23:45:34.606Z,65.24
2018-09-08T23:48:03.429Z,64.97
2018-09-08T23:50:32.311Z,64.72
2018-09-08T23:53:01.167Z,64.70
2018-09-08T23:55:30.008Z,64.89
2018-09-08T23:57:58.885Z,65.07
